Star Mariella — V7KK3 — position and weather

sailwx.info

Track history (hours):
 
Tides and Currents Weather Stations Pressure Air Temp Water Temp Dewpoint Dewpoint Depression Visibility Wind Speed Wind Dir Waves Ship Positions

Star Mariella

Last reported at 2016-Sep-06 22:06 UTC. Time now 2016-Sep-28 05:09 UTC.
Position N 10°02' W 079°38'.
Warning: this ship's position is 21 days out of date.

Length 229 m; draft 7.9 m.

Type: Ship. MMSI: 538002632.

Date/timePositionNaut miles runAvg speedWind from/ knotsBaromVisibWave heightAir tempDewpointWater temp
2016-Sep-06 22:06N 10°02' W 079°38'712.5
2016-Sep-06 21:33N 09°55' W 079°39'1212.0
2016-Sep-06 20:33N 09°43' W 079°41'1212.6
2016-Sep-06 19:33N 09°34' W 079°49'1211.8
2016-Sep-06 18:33N 09°25' W 079°58'0 0.1
2016-Sep-06 17:32N 09°25' W 079°58'0 0.0
2016-Sep-06 16:32N 09°25' W 079°58'0 0.0
2016-Sep-06 15:30N 09°25' W 079°58'0 0.0
2016-Sep-06 14:32N 09°25' W 079°58'0 0.0
2016-Sep-06 13:33N 09°25' W 079°58'0 0.0
2016-Sep-06 12:32N 09°25' W 079°58'0 0.0
2016-Sep-06 11:32N 09°25' W 079°58'0 0.0
2016-Sep-06 10:30N 09°25' W 079°58'0 0.0
2016-Sep-06 09:32N 09°25' W 079°58'0 0.0
2016-Sep-06 08:33N 09°25' W 079°58'0 0.0
2016-Sep-06 07:32N 09°25' W 079°58'0 0.0
2016-Sep-06 06:32N 09°25' W 079°58'0 0.0
2016-Sep-06 04:29N 09°25' W 079°58'0 0.0
2016-Sep-06 03:32N 09°25' W 079°58'0 0.0
2016-Sep-06 02:33N 09°25' W 079°58'0 0.0
2016-Sep-06 01:33N 09°25' W 079°58'0 0.0
2016-Sep-06 00:33N 09°25' W 079°58'0 0.0
2016-Sep-05 23:23N 09°25' W 079°58'0 0.0
2016-Sep-05 22:30N 09°25' W 079°58'0 0.0
2016-Sep-05 21:30N 09°25' W 079°58'0 0.0
2016-Sep-05 20:32N 09°25' W 079°58'0 0.0
2016-Sep-05 19:33N 09°25' W 079°58'0 0.0
2016-Sep-05 18:32N 09°25' W 079°58'0 0.0
2016-Sep-05 17:33N 09°25' W 079°58'0 0.0
2016-Sep-05 16:32N 09°25' W 079°58'0 0.0
2016-Sep-05 15:29N 09°25' W 079°58'0 0.0
2016-Sep-05 14:33N 09°25' W 079°58'0 0.0
2016-Sep-05 13:33N 09°25' W 079°58'0 0.0
2016-Sep-05 12:32N 09°25' W 079°58'0 0.0
2016-Sep-05 11:32N 09°25' W 079°58'0 0.0
2016-Sep-05 10:27N 09°25' W 079°58'0 0.0
2016-Sep-05 09:33N 09°25' W 079°58'0 0.1
2016-Sep-05 08:29N 09°25' W 079°58'0 0.0
2016-Sep-05 07:33N 09°25' W 079°58'0 0.0
2016-Sep-05 06:32N 09°25' W 079°58'0 0.0
2016-Sep-05 04:33N 09°25' W 079°58'0 0.0
2016-Sep-05 03:29N 09°25' W 079°58'0 0.0
2016-Sep-05 02:32N 09°25' W 079°58'0 0.0
2016-Sep-05 01:33N 09°25' W 079°58'0 0.0
2016-Sep-05 00:32N 09°25' W 079°58'0 0.0
2016-Sep-04 23:26N 09°25' W 079°58'0 0.0
2016-Sep-04 22:33N 09°25' W 079°58'0 0.0
2016-Sep-04 21:33N 09°25' W 079°58'0 0.0
2016-Sep-04 20:32N 09°25' W 079°58'0 0.0
2016-Sep-04 19:33N 09°25' W 079°58'0 0.4
2016-Sep-04 18:33N 09°26' W 079°57'6 6.2
2016-Sep-04 17:33N 09°20' W 079°55'3 3.5
2016-Sep-04 16:33N 09°16' W 079°55'1 0.7
2016-Sep-04 15:34N 09°16' W 079°55'7 7.2
2016-Sep-04 14:33N 09°11' W 079°50'9 8.9
2016-Sep-04 13:33N 09°07' W 079°42'8 5.3
2016-Sep-04 12:07N 09°01' W 079°37'0 0.0
2016-Sep-04 11:20N 09°01' W 079°37'0 0.5
2016-Sep-04 10:28N 09°01' W 079°37'2 1.7
2016-Sep-04 09:31N 08°60' W 079°35'2 2.1
2016-Sep-04 08:32N 08°58' W 079°35'9 8.7
2016-Sep-04 07:32N 08°51' W 079°30'1 0.4
2016-Sep-04 03:25N 08°50' W 079°31'0 0.0
2016-Sep-04 02:04N 08°50' W 079°31'0 0.0
2016-Sep-04 01:31N 08°50' W 079°31'0 0.0
2016-Sep-04 00:04N 08°50' W 079°31'0 0.0
2016-Sep-03 23:28N 08°50' W 079°31'0 0.1
2016-Sep-03 21:10N 08°50' W 079°31'0 0.1
2016-Sep-03 20:25N 08°50' W 079°31'0 0.1
2016-Sep-03 19:25N 08°50' W 079°31'0 0.0
2016-Sep-03 16:28N 08°50' W 079°31'0 0.1
2016-Sep-03 15:22N 08°50' W 079°31'0 0.0
2016-Sep-03 13:31N 08°50' W 079°31'0 0.0
2016-Sep-03 11:28N 08°50' W 079°31'0 0.0
2016-Sep-03 10:13N 08°50' W 079°31'0 0.1
2016-Sep-03 08:25N 08°50' W 079°31'0 0.0
2016-Sep-03 06:25N 08°50' W 079°31'0 0.0
2016-Sep-03 05:25N 08°50' W 079°31'0 0.1
2016-Sep-03 04:13N 08°50' W 079°31'0 0.1
2016-Sep-03 03:19N 08°50' W 079°31'0 0.0
2016-Sep-03 00:21N 08°50' W 079°31'0 0.0
2016-Sep-02 23:18N 08°50' W 079°31'0 0.0
2016-Sep-02 22:24N 08°50' W 079°31'0 0.1
2016-Sep-02 21:21N 08°50' W 079°31'0 0.0
2016-Sep-02 19:33N 08°50' W 079°31'0 0.0
2016-Sep-02 18:03N 08°50' W 079°31'0 0.0
2016-Sep-02 17:30N 08°50' W 079°31'0 0.1
2016-Sep-02 16:12N 08°50' W 079°31'0 0.3
2016-Sep-02 15:31N 08°50' W 079°30'7 6.0
2016-Sep-02 14:26N 08°46' W 079°25'9 9.5
2016-Sep-02 13:31N 08°37' W 079°23'11 9.6
2016-Sep-02 12:24N 08°27' W 079°22'8 9.7
2016-Sep-02 11:32N 08°18' W 079°22'30 9.8
2016-Sep-02 08:27N 07°48' W 079°22'  
Track history (hours):
 
Tides and Currents Weather Stations Pressure Air Temp Water Temp Dewpoint Dewpoint Depression Visibility Wind Speed Wind Dir Waves Ship Positions

Star Mariella

Last reported at 2016-Sep-06 22:06 UTC. Time now 2016-Sep-28 05:09 UTC.
Position N 10°02' W 079°38'.
Warning: this ship's position is 21 days out of date.

Length 229 m; draft 7.9 m.

Type: Ship. MMSI: 538002632.

Date/timePositionNaut miles runAvg speedWind from/ knotsBaromVisibWave heightAir tempDewpointWater temp
2016-Sep-06 22:06N 10°02' W 079°38'712.5
2016-Sep-06 21:33N 09°55' W 079°39'1212.0
2016-Sep-06 20:33N 09°43' W 079°41'1212.6
2016-Sep-06 19:33N 09°34' W 079°49'1211.8
2016-Sep-06 18:33N 09°25' W 079°58'0 0.1
2016-Sep-06 17:32N 09°25' W 079°58'0 0.0
2016-Sep-06 16:32N 09°25' W 079°58'0 0.0
2016-Sep-06 15:30N 09°25' W 079°58'0 0.0
2016-Sep-06 14:32N 09°25' W 079°58'0 0.0
2016-Sep-06 13:33N 09°25' W 079°58'0 0.0
2016-Sep-06 12:32N 09°25' W 079°58'0 0.0
2016-Sep-06 11:32N 09°25' W 079°58'0 0.0
2016-Sep-06 10:30N 09°25' W 079°58'0 0.0
2016-Sep-06 09:32N 09°25' W 079°58'0 0.0
2016-Sep-06 08:33N 09°25' W 079°58'0 0.0
2016-Sep-06 07:32N 09°25' W 079°58'0 0.0
2016-Sep-06 06:32N 09°25' W 079°58'0 0.0
2016-Sep-06 04:29N 09°25' W 079°58'0 0.0
2016-Sep-06 03:32N 09°25' W 079°58'0 0.0
2016-Sep-06 02:33N 09°25' W 079°58'0 0.0
2016-Sep-06 01:33N 09°25' W 079°58'0 0.0
2016-Sep-06 00:33N 09°25' W 079°58'0 0.0
2016-Sep-05 23:23N 09°25' W 079°58'0 0.0
2016-Sep-05 22:30N 09°25' W 079°58'0 0.0
2016-Sep-05 21:30N 09°25' W 079°58'0 0.0
2016-Sep-05 20:32N 09°25' W 079°58'0 0.0
2016-Sep-05 19:33N 09°25' W 079°58'0 0.0
2016-Sep-05 18:32N 09°25' W 079°58'0 0.0
2016-Sep-05 17:33N 09°25' W 079°58'0 0.0
2016-Sep-05 16:32N 09°25' W 079°58'0 0.0
2016-Sep-05 15:29N 09°25' W 079°58'0 0.0
2016-Sep-05 14:33N 09°25' W 079°58'0 0.0
2016-Sep-05 13:33N 09°25' W 079°58'0 0.0
2016-Sep-05 12:32N 09°25' W 079°58'0 0.0
2016-Sep-05 11:32N 09°25' W 079°58'0 0.0
2016-Sep-05 10:27N 09°25' W 079°58'0 0.0
2016-Sep-05 09:33N 09°25' W 079°58'0 0.1
2016-Sep-05 08:29N 09°25' W 079°58'0 0.0
2016-Sep-05 07:33N 09°25' W 079°58'0 0.0
2016-Sep-05 06:32N 09°25' W 079°58'0 0.0
2016-Sep-05 04:33N 09°25' W 079°58'0 0.0
2016-Sep-05 03:29N 09°25' W 079°58'0 0.0
2016-Sep-05 02:32N 09°25' W 079°58'0 0.0
2016-Sep-05 01:33N 09°25' W 079°58'0 0.0
2016-Sep-05 00:32N 09°25' W 079°58'0 0.0
2016-Sep-04 23:26N 09°25' W 079°58'0 0.0
2016-Sep-04 22:33N 09°25' W 079°58'0 0.0
2016-Sep-04 21:33N 09°25' W 079°58'0 0.0
2016-Sep-04 20:32N 09°25' W 079°58'0 0.0
2016-Sep-04 19:33N 09°25' W 079°58'0 0.4
2016-Sep-04 18:33N 09°26' W 079°57'6 6.2
2016-Sep-04 17:33N 09°20' W 079°55'3 3.5
2016-Sep-04 16:33N 09°16' W 079°55'1 0.7
2016-Sep-04 15:34N 09°16' W 079°55'7 7.2
2016-Sep-04 14:33N 09°11' W 079°50'9 8.9
2016-Sep-04 13:33N 09°07' W 079°42'8 5.3
2016-Sep-04 12:07N 09°01' W 079°37'0 0.0
2016-Sep-04 11:20N 09°01' W 079°37'0 0.5
2016-Sep-04 10:28N 09°01' W 079°37'2 1.7
2016-Sep-04 09:31N 08°60' W 079°35'2 2.1
2016-Sep-04 08:32N 08°58' W 079°35'9 8.7
2016-Sep-04 07:32N 08°51' W 079°30'1 0.4
2016-Sep-04 03:25N 08°50' W 079°31'0 0.0
2016-Sep-04 02:04N 08°50' W 079°31'0 0.0
2016-Sep-04 01:31N 08°50' W 079°31'0 0.0
2016-Sep-04 00:04N 08°50' W 079°31'0 0.0
2016-Sep-03 23:28N 08°50' W 079°31'0 0.1
2016-Sep-03 21:10N 08°50' W 079°31'0 0.1
2016-Sep-03 20:25N 08°50' W 079°31'0 0.1
2016-Sep-03 19:25N 08°50' W 079°31'0 0.0
2016-Sep-03 16:28N 08°50' W 079°31'0 0.1
2016-Sep-03 15:22N 08°50' W 079°31'0 0.0
2016-Sep-03 13:31N 08°50' W 079°31'0 0.0
2016-Sep-03 11:28N 08°50' W 079°31'0 0.0
2016-Sep-03 10:13N 08°50' W 079°31'0 0.1
2016-Sep-03 08:25N 08°50' W 079°31'0 0.0
2016-Sep-03 06:25N 08°50' W 079°31'0 0.0
2016-Sep-03 05:25N 08°50' W 079°31'0 0.1
2016-Sep-03 04:13N 08°50' W 079°31'0 0.1
2016-Sep-03 03:19N 08°50' W 079°31'0 0.0
2016-Sep-03 00:21N 08°50' W 079°31'0 0.0
2016-Sep-02 23:18N 08°50' W 079°31'0 0.0
2016-Sep-02 22:24N 08°50' W 079°31'0 0.1
2016-Sep-02 21:21N 08°50' W 079°31'0 0.0
2016-Sep-02 19:33N 08°50' W 079°31'0 0.0
2016-Sep-02 18:03N 08°50' W 079°31'0 0.0
2016-Sep-02 17:30N 08°50' W 079°31'0 0.1
2016-Sep-02 16:12N 08°50' W 079°31'0 0.3
2016-Sep-02 15:31N 08°50' W 079°30'7 6.0
2016-Sep-02 14:26N 08°46' W 079°25'9 9.5
2016-Sep-02 13:31N 08°37' W 079°23'11 9.6
2016-Sep-02 12:24N 08°27' W 079°22'8 9.7
2016-Sep-02 11:32N 08°18' W 079°22'30 9.8
2016-Sep-02 08:27N 07°48' W 079°22'  

Dump ship's entire track history